sensor_id;sensor_type;location;lat;lon;timestamp;P1;durP1;ratioP1;P2;durP2;ratioP2
36629;SDS011;36256;42.154;23.002;2023-06-24T00:04:28;20.48;;;15.35;;
36629;SDS011;36256;42.154;23.002;2023-06-24T00:06:55;24.92;;;16.00;;
36629;SDS011;36256;42.154;23.002;2023-06-24T00:09:26;20.70;;;15.00;;
36629;SDS011;36256;42.154;23.002;2023-06-24T00:11:54;17.17;;;15.38;;
36629;SDS011;36256;42.154;23.002;2023-06-24T00:14:21;20.70;;;15.20;;
36629;SDS011;36256;42.154;23.002;2023-06-24T00:16:50;18.95;;;14.43;;
36629;SDS011;36256;42.154;23.002;2023-06-24T00:19:18;18.15;;;15.05;;
36629;SDS011;36256;42.154;23.002;2023-06-24T00:21:46;20.23;;;15.30;;
36629;SDS011;36256;42.154;23.002;2023-06-24T00:24:20;19.08;;;14.93;;
36629;SDS011;36256;42.154;23.002;2023-06-24T00:26:52;16.83;;;14.35;;
36629;SDS011;36256;42.154;23.002;2023-06-24T00:29:19;16.13;;;13.90;;
36629;SDS011;36256;42.154;23.002;2023-06-24T00:31:46;15.20;;;13.65;;
36629;SDS011;36256;42.154;23.002;2023-06-24T00:34:13;18.40;;;15.45;;
36629;SDS011;36256;42.154;23.002;2023-06-24T00:39:07;24.58;;;15.27;;
36629;SDS011;36256;42.154;23.002;2023-06-24T00:41:34;19.25;;;14.77;;
36629;SDS011;36256;42.154;23.002;2023-06-24T00:44:01;19.42;;;14.85;;
36629;SDS011;36256;42.154;23.002;2023-06-24T00:48:55;19.35;;;15.40;;
36629;SDS011;36256;42.154;23.002;2023-06-24T00:51:22;21.08;;;15.48;;
36629;SDS011;36256;42.154;23.002;2023-06-24T00:53:59;21.33;;;15.15;;
36629;SDS011;36256;42.154;23.002;2023-06-24T00:56:35;18.23;;;15.50;;
36629;SDS011;36256;42.154;23.002;2023-06-24T00:59:10;18.10;;;15.45;;
36629;SDS011;36256;42.154;23.002;2023-06-24T01:01:39;18.00;;;15.25;;
36629;SDS011;36256;42.154;23.002;2023-06-24T01:04:07;18.42;;;16.33;;
36629;SDS011;36256;42.154;23.002;2023-06-24T01:09:02;17.95;;;14.68;;
36629;SDS011;36256;42.154;23.002;2023-06-24T01:11:31;18.35;;;14.90;;
36629;SDS011;36256;42.154;23.002;2023-06-24T01:13:58;37.67;;;15.90;;
36629;SDS011;36256;42.154;23.002;2023-06-24T01:16:49;18.95;;;14.93;;
36629;SDS011;36256;42.154;23.002;2023-06-24T01:25:36;17.27;;;14.93;;
36629;SDS011;36256;42.154;23.002;2023-06-24T01:34:02;18.67;;;15.68;;
36629;SDS011;36256;42.154;23.002;2023-06-24T01:36:36;19.55;;;14.88;;
36629;SDS011;36256;42.154;23.002;2023-06-24T01:39:06;19.60;;;15.70;;
36629;SDS011;36256;42.154;23.002;2023-06-24T01:41:42;17.70;;;15.52;;
36629;SDS011;36256;42.154;23.002;2023-06-24T01:44:15;21.42;;;15.07;;
36629;SDS011;36256;42.154;23.002;2023-06-24T01:46:45;21.27;;;16.02;;
36629;SDS011;36256;42.154;23.002;2023-06-24T01:49:16;19.58;;;16.02;;
36629;SDS011;36256;42.154;23.002;2023-06-24T01:51:45;20.52;;;16.20;;
36629;SDS011;36256;42.154;23.002;2023-06-24T01:54:15;22.75;;;16.60;;
36629;SDS011;36256;42.154;23.002;2023-06-24T01:56:45;18.17;;;15.55;;
36629;SDS011;36256;42.154;23.002;2023-06-24T01:59:16;21.77;;;16.15;;
36629;SDS011;36256;42.154;23.002;2023-06-24T02:01:46;18.88;;;15.10;;
36629;SDS011;36256;42.154;23.002;2023-06-24T02:04:14;18.73;;;14.80;;
36629;SDS011;36256;42.154;23.002;2023-06-24T02:06:42;16.92;;;14.25;;
36629;SDS011;36256;42.154;23.002;2023-06-24T02:09:10;19.85;;;15.45;;
36629;SDS011;36256;42.154;23.002;2023-06-24T02:11:38;17.80;;;14.35;;
36629;SDS011;36256;42.154;23.002;2023-06-24T02:14:06;20.08;;;14.35;;
36629;SDS011;36256;42.154;23.002;2023-06-24T02:16:34;19.90;;;14.70;;
36629;SDS011;36256;42.154;23.002;2023-06-24T02:19:02;19.40;;;14.13;;
36629;SDS011;36256;42.154;23.002;2023-06-24T02:21:31;17.42;;;13.90;;
36629;SDS011;36256;42.154;23.002;2023-06-24T02:24:01;18.67;;;14.13;;
36629;SDS011;36256;42.154;23.002;2023-06-24T02:26:29;17.52;;;14.35;;
36629;SDS011;36256;42.154;23.002;2023-06-24T02:28:56;16.00;;;13.68;;
36629;SDS011;36256;42.154;23.002;2023-06-24T02:31:24;17.90;;;14.25;;
36629;SDS011;36256;42.154;23.002;2023-06-24T02:33:51;17.55;;;14.73;;
36629;SDS011;36256;42.154;23.002;2023-06-24T02:36:17;22.77;;;14.85;;
36629;SDS011;36256;42.154;23.002;2023-06-24T02:38:44;17.70;;;15.48;;
36629;SDS011;36256;42.154;23.002;2023-06-24T02:41:11;19.25;;;15.52;;
36629;SDS011;36256;42.154;23.002;2023-06-24T02:43:37;18.08;;;15.38;;
36629;SDS011;36256;42.154;23.002;2023-06-24T02:46:04;17.52;;;15.40;;
36629;SDS011;36256;42.154;23.002;2023-06-24T02:48:33;18.92;;;14.60;;
36629;SDS011;36256;42.154;23.002;2023-06-24T02:51:03;19.55;;;14.73;;
36629;SDS011;36256;42.154;23.002;2023-06-24T02:53:33;19.52;;;15.00;;
36629;SDS011;36256;42.154;23.002;2023-06-24T02:56:01;16.17;;;13.95;;
36629;SDS011;36256;42.154;23.002;2023-06-24T02:58:30;19.13;;;14.40;;
36629;SDS011;36256;42.154;23.002;2023-06-24T03:01:01;17.58;;;14.50;;
36629;SDS011;36256;42.154;23.002;2023-06-24T03:03:33;18.35;;;14.68;;
36629;SDS011;36256;42.154;23.002;2023-06-24T03:06:01;20.17;;;15.07;;
36629;SDS011;36256;42.154;23.002;2023-06-24T03:13:22;16.88;;;14.30;;
36629;SDS011;36256;42.154;23.002;2023-06-24T03:15:49;20.17;;;13.93;;
36629;SDS011;36256;42.154;23.002;2023-06-24T03:18:16;18.50;;;15.15;;
36629;SDS011;36256;42.154;23.002;2023-06-24T03:20:44;17.05;;;14.43;;
36629;SDS011;36256;42.154;23.002;2023-06-24T03:25:38;18.33;;;15.02;;
36629;SDS011;36256;42.154;23.002;2023-06-24T03:28:05;21.08;;;15.15;;
36629;SDS011;36256;42.154;23.002;2023-06-24T03:30:34;16.67;;;14.85;;
36629;SDS011;36256;42.154;23.002;2023-06-24T03:33:01;19.98;;;14.70;;
36629;SDS011;36256;42.154;23.002;2023-06-24T03:35:28;20.30;;;14.68;;
36629;SDS011;36256;42.154;23.002;2023-06-24T03:37:56;16.55;;;14.55;;
36629;SDS011;36256;42.154;23.002;2023-06-24T03:40:22;20.20;;;14.63;;
36629;SDS011;36256;42.154;23.002;2023-06-24T03:42:49;20.52;;;14.40;;
36629;SDS011;36256;42.154;23.002;2023-06-24T03:45:16;22.10;;;15.00;;
36629;SDS011;36256;42.154;23.002;2023-06-24T03:47:42;17.35;;;15.15;;
36629;SDS011;36256;42.154;23.002;2023-06-24T03:50:09;22.90;;;16.20;;
36629;SDS011;36256;42.154;23.002;2023-06-24T03:52:36;20.85;;;16.27;;
36629;SDS011;36256;42.154;23.002;2023-06-24T03:55:03;26.00;;;17.25;;
36629;SDS011;36256;42.154;23.002;2023-06-24T03:57:31;21.55;;;16.08;;
36629;SDS011;36256;42.154;23.002;2023-06-24T04:02:24;24.95;;;17.23;;
36629;SDS011;36256;42.154;23.002;2023-06-24T04:04:53;24.95;;;18.08;;
36629;SDS011;36256;42.154;23.002;2023-06-24T04:07:22;24.38;;;16.67;;
36629;SDS011;36256;42.154;23.002;2023-06-24T04:09:54;22.95;;;16.45;;
36629;SDS011;36256;42.154;23.002;2023-06-24T04:12:22;21.58;;;16.73;;
36629;SDS011;36256;42.154;23.002;2023-06-24T04:14:49;19.63;;;16.10;;
36629;SDS011;36256;42.154;23.002;2023-06-24T04:17:16;20.95;;;15.40;;
36629;SDS011;36256;42.154;23.002;2023-06-24T04:19:43;20.92;;;16.58;;
36629;SDS011;36256;42.154;23.002;2023-06-24T04:22:10;27.58;;;17.05;;
36629;SDS011;36256;42.154;23.002;2023-06-24T04:24:37;23.65;;;16.42;;
36629;SDS011;36256;42.154;23.002;2023-06-24T04:27:05;22.42;;;15.30;;
36629;SDS011;36256;42.154;23.002;2023-06-24T04:29:33;18.55;;;15.43;;
36629;SDS011;36256;42.154;23.002;2023-06-24T04:32:00;18.00;;;14.80;;
36629;SDS011;36256;42.154;23.002;2023-06-24T04:34:27;23.83;;;14.60;;
36629;SDS011;36256;42.154;23.002;2023-06-24T04:36:54;22.08;;;14.55;;
36629;SDS011;36256;42.154;23.002;2023-06-24T04:39:21;21.23;;;14.82;;
36629;SDS011;36256;42.154;23.002;2023-06-24T04:41:48;17.58;;;13.13;;
36629;SDS011;36256;42.154;23.002;2023-06-24T04:44:14;16.88;;;14.23;;
36629;SDS011;36256;42.154;23.002;2023-06-24T04:46:41;16.15;;;13.23;;
36629;SDS011;36256;42.154;23.002;2023-06-24T04:49:08;18.17;;;13.93;;
36629;SDS011;36256;42.154;23.002;2023-06-24T04:51:35;20.83;;;14.88;;
36629;SDS011;36256;42.154;23.002;2023-06-24T04:54:03;18.63;;;14.52;;
36629;SDS011;36256;42.154;23.002;2023-06-24T04:58:56;23.27;;;16.55;;
36629;SDS011;36256;42.154;23.002;2023-06-24T05:01:23;20.52;;;16.13;;
36629;SDS011;36256;42.154;23.002;2023-06-24T05:03:50;18.70;;;16.02;;
36629;SDS011;36256;42.154;23.002;2023-06-24T05:06:16;22.02;;;16.42;;
36629;SDS011;36256;42.154;23.002;2023-06-24T05:08:43;24.65;;;16.95;;
36629;SDS011;36256;42.154;23.002;2023-06-24T05:11:10;22.65;;;17.42;;
36629;SDS011;36256;42.154;23.002;2023-06-24T05:13:37;29.27;;;17.38;;
36629;SDS011;36256;42.154;23.002;2023-06-24T05:16:03;23.30;;;16.90;;
36629;SDS011;36256;42.154;23.002;2023-06-24T05:18:30;22.58;;;16.83;;
36629;SDS011;36256;42.154;23.002;2023-06-24T05:20:57;26.02;;;17.10;;
36629;SDS011;36256;42.154;23.002;2023-06-24T05:23:24;22.30;;;17.02;;
36629;SDS011;36256;42.154;23.002;2023-06-24T05:25:51;23.48;;;16.92;;
36629;SDS011;36256;42.154;23.002;2023-06-24T05:28:17;19.33;;;16.77;;
36629;SDS011;36256;42.154;23.002;2023-06-24T05:30:44;20.65;;;16.42;;
36629;SDS011;36256;42.154;23.002;2023-06-24T05:33:12;21.52;;;16.73;;
36629;SDS011;36256;42.154;23.002;2023-06-24T05:35:39;20.75;;;16.23;;
36629;SDS011;36256;42.154;23.002;2023-06-24T05:38:08;20.13;;;17.05;;
36629;SDS011;36256;42.154;23.002;2023-06-24T05:40:34;19.83;;;17.05;;
36629;SDS011;36256;42.154;23.002;2023-06-24T05:43:01;21.35;;;17.15;;
36629;SDS011;36256;42.154;23.002;2023-06-24T05:45:29;21.92;;;16.25;;
36629;SDS011;36256;42.154;23.002;2023-06-24T05:47:56;23.52;;;16.45;;
36629;SDS011;36256;42.154;23.002;2023-06-24T05:50:22;20.25;;;16.35;;
36629;SDS011;36256;42.154;23.002;2023-06-24T05:52:49;23.83;;;16.48;;
36629;SDS011;36256;42.154;23.002;2023-06-24T05:55:16;19.88;;;15.40;;
36629;SDS011;36256;42.154;23.002;2023-06-24T05:57:42;20.75;;;14.93;;
36629;SDS011;36256;42.154;23.002;2023-06-24T06:00:09;17.52;;;14.80;;
36629;SDS011;36256;42.154;23.002;2023-06-24T06:07:30;17.80;;;13.73;;
36629;SDS011;36256;42.154;23.002;2023-06-24T06:09:57;17.98;;;13.82;;
36629;SDS011;36256;42.154;23.002;2023-06-24T06:12:23;18.77;;;14.43;;
36629;SDS011;36256;42.154;23.002;2023-06-24T06:14:50;24.63;;;14.10;;
36629;SDS011;36256;42.154;23.002;2023-06-24T06:17:17;18.38;;;14.57;;
36629;SDS011;36256;42.154;23.002;2023-06-24T06:19:43;18.77;;;13.48;;
36629;SDS011;36256;42.154;23.002;2023-06-24T06:22:15;18.85;;;14.50;;
36629;SDS011;36256;42.154;23.002;2023-06-24T06:24:41;17.98;;;13.73;;
36629;SDS011;36256;42.154;23.002;2023-06-24T06:27:11;16.77;;;13.82;;
36629;SDS011;36256;42.154;23.002;2023-06-24T06:29:39;19.15;;;14.23;;
36629;SDS011;36256;42.154;23.002;2023-06-24T06:32:07;16.30;;;14.00;;
36629;SDS011;36256;42.154;23.002;2023-06-24T06:34:34;17.08;;;14.27;;
36629;SDS011;36256;42.154;23.002;2023-06-24T06:37:00;20.45;;;14.30;;
36629;SDS011;36256;42.154;23.002;2023-06-24T06:39:27;15.43;;;13.20;;
36629;SDS011;36256;42.154;23.002;2023-06-24T06:41:54;15.63;;;13.90;;
36629;SDS011;36256;42.154;23.002;2023-06-24T06:44:21;16.98;;;13.38;;
36629;SDS011;36256;42.154;23.002;2023-06-24T06:46:48;20.25;;;13.10;;
36629;SDS011;36256;42.154;23.002;2023-06-24T06:49:14;19.15;;;13.35;;
36629;SDS011;36256;42.154;23.002;2023-06-24T06:51:41;16.38;;;13.40;;
36629;SDS011;36256;42.154;23.002;2023-06-24T06:54:08;18.25;;;12.43;;
36629;SDS011;36256;42.154;23.002;2023-06-24T06:56:34;13.95;;;12.45;;
36629;SDS011;36256;42.154;23.002;2023-06-24T06:59:01;16.10;;;13.57;;
36629;SDS011;36256;42.154;23.002;2023-06-24T07:01:28;15.02;;;12.70;;
36629;SDS011;36256;42.154;23.002;2023-06-24T07:03:54;16.48;;;13.30;;
36629;SDS011;36256;42.154;23.002;2023-06-24T07:11:14;16.35;;;12.43;;
36629;SDS011;36256;42.154;23.002;2023-06-24T07:13:41;16.45;;;12.48;;
36629;SDS011;36256;42.154;23.002;2023-06-24T07:16:08;14.77;;;12.05;;
36629;SDS011;36256;42.154;23.002;2023-06-24T07:18:34;16.38;;;11.60;;
36629;SDS011;36256;42.154;23.002;2023-06-24T07:21:01;65.32;;;14.88;;
36629;SDS011;36256;42.154;23.002;2023-06-24T07:25:55;16.30;;;12.40;;
36629;SDS011;36256;42.154;23.002;2023-06-24T07:28:21;14.18;;;11.70;;
36629;SDS011;36256;42.154;23.002;2023-06-24T07:30:48;15.30;;;12.57;;
36629;SDS011;36256;42.154;23.002;2023-06-24T07:33:15;14.38;;;12.18;;
36629;SDS011;36256;42.154;23.002;2023-06-24T07:35:42;16.98;;;12.23;;
36629;SDS011;36256;42.154;23.002;2023-06-24T07:38:08;13.80;;;11.93;;
36629;SDS011;36256;42.154;23.002;2023-06-24T07:40:35;15.65;;;12.25;;
36629;SDS011;36256;42.154;23.002;2023-06-24T07:43:02;14.20;;;12.27;;
36629;SDS011;36256;42.154;23.002;2023-06-24T07:45:28;14.10;;;11.77;;
36629;SDS011;36256;42.154;23.002;2023-06-24T07:47:55;19.80;;;12.68;;
36629;SDS011;36256;42.154;23.002;2023-06-24T07:50:22;15.50;;;12.25;;
36629;SDS011;36256;42.154;23.002;2023-06-24T07:52:49;18.17;;;12.02;;
36629;SDS011;36256;42.154;23.002;2023-06-24T07:55:16;12.35;;;11.15;;
36629;SDS011;36256;42.154;23.002;2023-06-24T07:57:45;16.52;;;10.55;;
36629;SDS011;36256;42.154;23.002;2023-06-24T08:00:13;12.80;;;11.40;;
36629;SDS011;36256;42.154;23.002;2023-06-24T08:02:41;13.55;;;11.50;;
36629;SDS011;36256;42.154;23.002;2023-06-24T08:05:08;12.82;;;11.57;;
36629;SDS011;36256;42.154;23.002;2023-06-24T08:10:02;13.98;;;11.55;;
36629;SDS011;36256;42.154;23.002;2023-06-24T08:12:29;14.07;;;11.82;;
36629;SDS011;36256;42.154;23.002;2023-06-24T08:14:56;13.15;;;11.75;;
36629;SDS011;36256;42.154;23.002;2023-06-24T08:17:22;14.57;;;12.10;;
36629;SDS011;36256;42.154;23.002;2023-06-24T08:19:49;14.63;;;12.18;;
36629;SDS011;36256;42.154;23.002;2023-06-24T08:22:16;13.77;;;12.07;;
36629;SDS011;36256;42.154;23.002;2023-06-24T08:24:43;15.95;;;12.43;;
36629;SDS011;36256;42.154;23.002;2023-06-24T08:27:09;16.45;;;12.10;;
36629;SDS011;36256;42.154;23.002;2023-06-24T08:29:36;15.32;;;12.10;;
36629;SDS011;36256;42.154;23.002;2023-06-24T08:32:04;13.25;;;11.65;;
36629;SDS011;36256;42.154;23.002;2023-06-24T08:34:33;13.73;;;12.32;;
36629;SDS011;36256;42.154;23.002;2023-06-24T08:37:00;13.00;;;11.30;;
36629;SDS011;36256;42.154;23.002;2023-06-24T08:39:27;17.33;;;11.95;;
36629;SDS011;36256;42.154;23.002;2023-06-24T08:41:54;12.85;;;11.55;;
36629;SDS011;36256;42.154;23.002;2023-06-24T08:44:21;12.80;;;11.32;;
36629;SDS011;36256;42.154;23.002;2023-06-24T08:46:48;13.80;;;11.63;;
36629;SDS011;36256;42.154;23.002;2023-06-24T08:51:51;16.05;;;11.63;;
36629;SDS011;36256;42.154;23.002;2023-06-24T08:54:23;14.55;;;11.32;;
36629;SDS011;36256;42.154;23.002;2023-06-24T08:56:50;14.60;;;11.60;;
36629;SDS011;36256;42.154;23.002;2023-06-24T08:59:18;18.05;;;11.48;;
36629;SDS011;36256;42.154;23.002;2023-06-24T09:01:46;15.95;;;11.60;;
36629;SDS011;36256;42.154;23.002;2023-06-24T09:04:13;291.40;;;23.92;;
36629;SDS011;36256;42.154;23.002;2023-06-24T09:06:40;11.57;;;10.15;;
36629;SDS011;36256;42.154;23.002;2023-06-24T09:11:50;15.68;;;11.57;;
36629;SDS011;36256;42.154;23.002;2023-06-24T09:14:18;11.43;;;10.23;;
36629;SDS011;36256;42.154;23.002;2023-06-24T09:16:53;31.05;;;10.85;;
36629;SDS011;36256;42.154;23.002;2023-06-24T09:19:24;13.85;;;10.40;;
36629;SDS011;36256;42.154;23.002;2023-06-24T09:21:54;14.85;;;10.55;;
36629;SDS011;36256;42.154;23.002;2023-06-24T09:24:22;11.93;;;9.93;;
36629;SDS011;36256;42.154;23.002;2023-06-24T09:26:55;14.40;;;11.00;;
36629;SDS011;36256;42.154;23.002;2023-06-24T09:29:28;13.35;;;10.10;;
36629;SDS011;36256;42.154;23.002;2023-06-24T09:32:03;11.70;;;10.47;;
36629;SDS011;36256;42.154;23.002;2023-06-24T09:34:30;13.68;;;10.90;;
36629;SDS011;36256;42.154;23.002;2023-06-24T09:36:58;13.38;;;11.23;;
36629;SDS011;36256;42.154;23.002;2023-06-24T09:39:26;16.80;;;10.98;;
36629;SDS011;36256;42.154;23.002;2023-06-24T09:41:57;11.55;;;10.18;;
36629;SDS011;36256;42.154;23.002;2023-06-24T09:44:25;15.63;;;10.82;;
36629;SDS011;36256;42.154;23.002;2023-06-24T09:46:52;13.05;;;10.98;;
36629;SDS011;36256;42.154;23.002;2023-06-24T09:49:19;13.93;;;10.90;;
36629;SDS011;36256;42.154;23.002;2023-06-24T09:51:47;16.27;;;10.38;;
36629;SDS011;36256;42.154;23.002;2023-06-24T09:54:16;47.65;;;11.98;;
36629;SDS011;36256;42.154;23.002;2023-06-24T09:56:49;11.07;;;9.98;;
36629;SDS011;36256;42.154;23.002;2023-06-24T09:59:20;12.95;;;10.70;;
36629;SDS011;36256;42.154;23.002;2023-06-24T10:01:48;15.15;;;10.85;;
36629;SDS011;36256;42.154;23.002;2023-06-24T10:04:18;14.45;;;10.23;;
36629;SDS011;36256;42.154;23.002;2023-06-24T10:06:46;13.88;;;10.95;;
36629;SDS011;36256;42.154;23.002;2023-06-24T10:09:13;11.77;;;10.55;;
36629;SDS011;36256;42.154;23.002;2023-06-24T10:11:44;12.25;;;10.95;;
36629;SDS011;36256;42.154;23.002;2023-06-24T10:14:11;14.80;;;11.57;;
36629;SDS011;36256;42.154;23.002;2023-06-24T10:16:38;13.93;;;11.00;;
36629;SDS011;36256;42.154;23.002;2023-06-24T10:19:06;13.15;;;11.02;;
36629;SDS011;36256;42.154;23.002;2023-06-24T10:24:33;11.70;;;10.50;;
36629;SDS011;36256;42.154;23.002;2023-06-24T10:27:08;14.27;;;10.73;;
36629;SDS011;36256;42.154;23.002;2023-06-24T10:29:38;14.60;;;11.18;;
36629;SDS011;36256;42.154;23.002;2023-06-24T10:32:06;14.68;;;11.00;;
36629;SDS011;36256;42.154;23.002;2023-06-24T10:37:02;13.95;;;11.20;;
36629;SDS011;36256;42.154;23.002;2023-06-24T10:39:36;14.48;;;11.65;;
36629;SDS011;36256;42.154;23.002;2023-06-24T10:47:39;11.82;;;10.55;;
36629;SDS011;36256;42.154;23.002;2023-06-24T10:50:07;16.80;;;10.45;;
36629;SDS011;36256;42.154;23.002;2023-06-24T10:52:41;17.58;;;10.68;;
36629;SDS011;36256;42.154;23.002;2023-06-24T10:55:16;11.50;;;10.30;;
36629;SDS011;36256;42.154;23.002;2023-06-24T10:57:44;12.50;;;11.20;;
36629;SDS011;36256;42.154;23.002;2023-06-24T11:00:12;13.40;;;10.73;;
36629;SDS011;36256;42.154;23.002;2023-06-24T11:02:40;14.30;;;11.60;;
36629;SDS011;36256;42.154;23.002;2023-06-24T11:05:07;16.77;;;11.68;;
36629;SDS011;36256;42.154;23.002;2023-06-24T11:07:35;17.13;;;11.82;;
36629;SDS011;36256;42.154;23.002;2023-06-24T11:10:07;13.23;;;11.80;;
36629;SDS011;36256;42.154;23.002;2023-06-24T11:12:39;13.73;;;10.82;;
36629;SDS011;36256;42.154;23.002;2023-06-24T11:15:10;12.95;;;11.00;;
36629;SDS011;36256;42.154;23.002;2023-06-24T11:17:38;12.40;;;11.10;;
36629;SDS011;36256;42.154;23.002;2023-06-24T11:20:06;17.52;;;13.18;;
36629;SDS011;36256;42.154;23.002;2023-06-24T11:22:35;17.45;;;12.77;;
36629;SDS011;36256;42.154;23.002;2023-06-24T11:25:02;14.77;;;12.82;;
36629;SDS011;36256;42.154;23.002;2023-06-24T11:27:30;14.75;;;12.65;;
36629;SDS011;36256;42.154;23.002;2023-06-24T11:29:58;18.67;;;12.95;;
36629;SDS011;36256;42.154;23.002;2023-06-24T11:32:34;18.35;;;13.05;;
36629;SDS011;36256;42.154;23.002;2023-06-24T11:35:09;20.23;;;13.65;;
36629;SDS011;36256;42.154;23.002;2023-06-24T11:37:37;14.63;;;13.05;;
36629;SDS011;36256;42.154;23.002;2023-06-24T11:40:09;19.08;;;13.90;;
36629;SDS011;36256;42.154;23.002;2023-06-24T11:42:36;15.55;;;13.60;;
36629;SDS011;36256;42.154;23.002;2023-06-24T11:45:07;17.50;;;14.10;;
36629;SDS011;36256;42.154;23.002;2023-06-24T11:47:39;15.77;;;13.57;;
36629;SDS011;36256;42.154;23.002;2023-06-24T11:50:07;23.05;;;14.75;;
36629;SDS011;36256;42.154;23.002;2023-06-24T11:52:38;18.58;;;14.77;;
36629;SDS011;36256;42.154;23.002;2023-06-24T11:55:18;19.25;;;15.15;;
36629;SDS011;36256;42.154;23.002;2023-06-24T12:00:29;27.08;;;15.38;;
36629;SDS011;36256;42.154;23.002;2023-06-24T12:03:04;18.23;;;14.82;;
36629;SDS011;36256;42.154;23.002;2023-06-24T12:05:36;15.35;;;13.25;;
36629;SDS011;36256;42.154;23.002;2023-06-24T12:10:34;17.45;;;14.10;;
36629;SDS011;36256;42.154;23.002;2023-06-24T12:13:02;16.55;;;14.20;;
36629;SDS011;36256;42.154;23.002;2023-06-24T12:15:32;18.15;;;13.98;;
36629;SDS011;36256;42.154;23.002;2023-06-24T12:17:59;22.25;;;14.23;;
36629;SDS011;36256;42.154;23.002;2023-06-24T12:54:26;24.02;;;16.75;;
36629;SDS011;36256;42.154;23.002;2023-06-24T12:56:53;24.58;;;15.82;;
36629;SDS011;36256;42.154;23.002;2023-06-24T12:59:37;27.02;;;18.35;;
36629;SDS011;36256;42.154;23.002;2023-06-24T13:02:04;23.40;;;17.95;;
36629;SDS011;36256;42.154;23.002;2023-06-24T13:04:31;29.77;;;20.02;;
36629;SDS011;36256;42.154;23.002;2023-06-24T13:06:58;26.17;;;19.38;;
36629;SDS011;36256;42.154;23.002;2023-06-24T13:09:24;25.88;;;19.20;;
36629;SDS011;36256;42.154;23.002;2023-06-24T13:11:51;30.92;;;18.38;;
36629;SDS011;36256;42.154;23.002;2023-06-24T13:14:18;24.10;;;17.73;;
36629;SDS011;36256;42.154;23.002;2023-06-24T13:19:12;24.88;;;16.52;;
36629;SDS011;36256;42.154;23.002;2023-06-24T13:21:41;26.50;;;17.50;;
36629;SDS011;36256;42.154;23.002;2023-06-24T13:24:08;28.13;;;18.35;;
36629;SDS011;36256;42.154;23.002;2023-06-24T13:26:35;21.83;;;17.20;;
36629;SDS011;36256;42.154;23.002;2023-06-24T14:03:27;28.20;;;19.92;;
36629;SDS011;36256;42.154;23.002;2023-06-24T14:05:53;29.08;;;20.52;;
36629;SDS011;36256;42.154;23.002;2023-06-24T14:08:20;26.00;;;21.20;;
36629;SDS011;36256;42.154;23.002;2023-06-24T14:10:47;29.10;;;21.15;;
36629;SDS011;36256;42.154;23.002;2023-06-24T14:13:14;30.80;;;19.48;;
36629;SDS011;36256;42.154;23.002;2023-06-24T14:15:40;29.52;;;18.92;;
36629;SDS011;36256;42.154;23.002;2023-06-24T14:18:07;32.08;;;19.25;;
36629;SDS011;36256;42.154;23.002;2023-06-24T14:20:34;24.65;;;17.42;;
36629;SDS011;36256;42.154;23.002;2023-06-24T14:25:28;24.83;;;17.10;;
36629;SDS011;36256;42.154;23.002;2023-06-24T14:27:54;28.45;;;15.75;;
36629;SDS011;36256;42.154;23.002;2023-06-24T14:30:21;26.85;;;14.57;;
36629;SDS011;36256;42.154;23.002;2023-06-24T14:32:48;26.52;;;15.73;;
36629;SDS011;36256;42.154;23.002;2023-06-24T14:35:15;27.55;;;15.75;;
36629;SDS011;36256;42.154;23.002;2023-06-24T14:37:41;22.42;;;15.88;;
36629;SDS011;36256;42.154;23.002;2023-06-24T14:40:08;23.60;;;14.57;;
36629;SDS011;36256;42.154;23.002;2023-06-24T14:42:35;30.83;;;16.55;;
36629;SDS011;36256;42.154;23.002;2023-06-24T14:45:02;32.22;;;16.35;;
36629;SDS011;36256;42.154;23.002;2023-06-24T14:47:29;22.42;;;13.95;;
36629;SDS011;36256;42.154;23.002;2023-06-24T14:49:56;27.73;;;13.02;;
36629;SDS011;36256;42.154;23.002;2023-06-24T14:52:23;18.17;;;12.05;;
36629;SDS011;36256;42.154;23.002;2023-06-24T14:54:50;28.10;;;14.15;;
36629;SDS011;36256;42.154;23.002;2023-06-24T14:57:17;24.67;;;15.02;;
36629;SDS011;36256;42.154;23.002;2023-06-24T14:59:43;26.23;;;15.63;;
36629;SDS011;36256;42.154;23.002;2023-06-24T15:02:10;25.83;;;16.02;;
36629;SDS011;36256;42.154;23.002;2023-06-24T15:04:37;25.80;;;15.43;;
36629;SDS011;36256;42.154;23.002;2023-06-24T15:07:05;30.98;;;16.42;;
36629;SDS011;36256;42.154;23.002;2023-06-24T15:09:31;26.23;;;16.20;;
36629;SDS011;36256;42.154;23.002;2023-06-24T15:12:03;21.50;;;15.68;;
36629;SDS011;36256;42.154;23.002;2023-06-24T15:16:57;23.98;;;15.23;;
36629;SDS011;36256;42.154;23.002;2023-06-24T15:19:24;21.42;;;14.32;;
36629;SDS011;36256;42.154;23.002;2023-06-24T15:21:51;23.75;;;14.60;;
36629;SDS011;36256;42.154;23.002;2023-06-24T15:24:18;22.27;;;14.23;;
36629;SDS011;36256;42.154;23.002;2023-06-24T15:26:45;28.52;;;16.02;;
36629;SDS011;36256;42.154;23.002;2023-06-24T15:29:11;27.48;;;17.55;;
36629;SDS011;36256;42.154;23.002;2023-06-24T15:31:38;29.23;;;16.95;;
36629;SDS011;36256;42.154;23.002;2023-06-24T15:34:05;30.33;;;18.23;;
36629;SDS011;36256;42.154;23.002;2023-06-24T15:36:32;23.20;;;15.68;;
36629;SDS011;36256;42.154;23.002;2023-06-24T15:38:58;21.45;;;14.10;;
36629;SDS011;36256;42.154;23.002;2023-06-24T15:41:25;23.92;;;15.18;;
36629;SDS011;36256;42.154;23.002;2023-06-24T15:43:52;22.63;;;14.82;;
36629;SDS011;36256;42.154;23.002;2023-06-24T15:46:19;19.02;;;14.90;;
36629;SDS011;36256;42.154;23.002;2023-06-24T15:48:46;24.25;;;14.65;;
36629;SDS011;36256;42.154;23.002;2023-06-24T15:51:12;22.92;;;14.48;;
36629;SDS011;36256;42.154;23.002;2023-06-24T15:53:39;23.58;;;15.88;;
36629;SDS011;36256;42.154;23.002;2023-06-24T15:56:06;24.85;;;16.65;;
36629;SDS011;36256;42.154;23.002;2023-06-24T15:58:32;24.10;;;17.10;;
36629;SDS011;36256;42.154;23.002;2023-06-24T16:00:59;28.10;;;17.48;;
36629;SDS011;36256;42.154;23.002;2023-06-24T16:03:28;24.92;;;17.00;;
36629;SDS011;36256;42.154;23.002;2023-06-24T16:05:55;31.70;;;17.13;;
36629;SDS011;36256;42.154;23.002;2023-06-24T16:08:21;22.75;;;16.35;;
36629;SDS011;36256;42.154;23.002;2023-06-24T16:10:48;26.17;;;16.33;;
36629;SDS011;36256;42.154;23.002;2023-06-24T16:13:15;23.27;;;15.35;;
36629;SDS011;36256;42.154;23.002;2023-06-24T16:15:42;25.58;;;15.40;;
36629;SDS011;36256;42.154;23.002;2023-06-24T16:18:08;23.05;;;15.52;;
36629;SDS011;36256;42.154;23.002;2023-06-24T16:20:35;24.50;;;15.65;;
36629;SDS011;36256;42.154;23.002;2023-06-24T16:37:14;23.20;;;16.13;;
36629;SDS011;36256;42.154;23.002;2023-06-24T16:39:41;19.40;;;14.73;;
36629;SDS011;36256;42.154;23.002;2023-06-24T16:42:08;24.15;;;14.00;;
36629;SDS011;36256;42.154;23.002;2023-06-24T16:44:35;20.42;;;13.85;;
36629;SDS011;36256;42.154;23.002;2023-06-24T16:47:03;20.25;;;14.60;;
36629;SDS011;36256;42.154;23.002;2023-06-24T16:51:57;23.67;;;15.45;;
36629;SDS011;36256;42.154;23.002;2023-06-24T16:54:24;25.25;;;16.02;;
36629;SDS011;36256;42.154;23.002;2023-06-24T16:56:51;27.60;;;17.58;;